sensor_id;sensor_type;location;lat;lon;timestamp;pressure;altitude;pressure_sealevel;temperature;humidity
39949;BME280;29070;48.102;-1.652;2024-01-30T00:02:51;102380.59;;;11.70;82.48
39949;BME280;29070;48.102;-1.652;2024-01-30T00:07:51;102384.69;;;11.72;82.54
39949;BME280;29070;48.102;-1.652;2024-01-30T00:12:52;102382.41;;;11.77;82.63
39949;BME280;29070;48.102;-1.652;2024-01-30T00:17:52;102384.88;;;11.79;82.75
39949;BME280;29070;48.102;-1.652;2024-01-30T00:22:53;102384.88;;;11.79;82.77
39949;BME280;29070;48.102;-1.652;2024-01-30T00:27:53;102376.97;;;11.79;82.63
39949;BME280;29070;48.102;-1.652;2024-01-30T00:32:54;102369.91;;;11.79;82.94
39949;BME280;29070;48.102;-1.652;2024-01-30T00:37:54;102378.97;;;11.77;83.31
39949;BME280;29070;48.102;-1.652;2024-01-30T00:42:54;102390.59;;;11.74;82.77
39949;BME280;29070;48.102;-1.652;2024-01-30T00:47:55;102401.78;;;11.76;82.98
39949;BME280;29070;48.102;-1.652;2024-01-30T00:52:55;102399.31;;;11.75;83.09
39949;BME280;29070;48.102;-1.652;2024-01-30T00:57:55;102400.47;;;11.72;83.08
39949;BME280;29070;48.102;-1.652;2024-01-30T01:02:56;102414.09;;;11.68;83.26
39949;BME280;29070;48.102;-1.652;2024-01-30T01:07:56;102413.28;;;11.67;83.28
39949;BME280;29070;48.102;-1.652;2024-01-30T01:12:56;102411.47;;;11.68;83.44
39949;BME280;29070;48.102;-1.652;2024-01-30T01:17:57;102419.34;;;11.68;83.49
39949;BME280;29070;48.102;-1.652;2024-01-30T01:22:57;102417.56;;;11.68;83.60
39949;BME280;29070;48.102;-1.652;2024-01-30T01:27:57;102419.53;;;11.74;83.69
39949;BME280;29070;48.102;-1.652;2024-01-30T01:32:58;102417.56;;;11.76;83.63
39949;BME280;29070;48.102;-1.652;2024-01-30T01:38:01;102429.75;;;11.77;83.86
39949;BME280;29070;48.102;-1.652;2024-01-30T01:43:03;102435.00;;;11.77;83.73
39949;BME280;29070;48.102;-1.652;2024-01-30T01:48:04;102437.34;;;11.80;83.98
39949;BME280;29070;48.102;-1.652;2024-01-30T01:53:06;102449.50;;;11.81;83.90
39949;BME280;29070;48.102;-1.652;2024-01-30T01:58:08;102454.09;;;11.79;84.08
39949;BME280;29070;48.102;-1.652;2024-01-30T02:03:10;102456.72;;;11.79;83.94
39949;BME280;29070;48.102;-1.652;2024-01-30T02:08:12;102458.53;;;11.79;83.95
39949;BME280;29070;48.102;-1.652;2024-01-30T02:13:12;102469.56;;;11.82;84.00
39949;BME280;29070;48.102;-1.652;2024-01-30T02:18:13;102470.38;;;11.83;84.05
39949;BME280;29070;48.102;-1.652;2024-01-30T02:23:15;102463.63;;;11.80;83.98
39949;BME280;29070;48.102;-1.652;2024-01-30T02:28:16;102468.22;;;11.78;83.92
39949;BME280;29070;48.102;-1.652;2024-01-30T02:33:16;102481.72;;;11.75;83.75
39949;BME280;29070;48.102;-1.652;2024-01-30T02:38:16;102475.94;;;11.72;83.72
39949;BME280;29070;48.102;-1.652;2024-01-30T02:43:17;102489.91;;;11.72;83.67
39949;BME280;29070;48.102;-1.652;2024-01-30T02:48:17;102490.22;;;11.69;83.56
39949;BME280;29070;48.102;-1.652;2024-01-30T02:53:17;102500.59;;;11.71;83.50
39949;BME280;29070;48.102;-1.652;2024-01-30T02:58:18;102502.72;;;11.67;83.38
39949;BME280;29070;48.102;-1.652;2024-01-30T03:03:18;102503.34;;;11.61;83.22
39949;BME280;29070;48.102;-1.652;2024-01-30T03:08:18;102496.72;;;11.57;82.98
39949;BME280;29070;48.102;-1.652;2024-01-30T03:13:19;102505.28;;;11.51;82.77
39949;BME280;29070;48.102;-1.652;2024-01-30T03:18:20;102504.91;;;11.45;82.76
39949;BME280;29070;48.102;-1.652;2024-01-30T03:23:21;102503.88;;;11.38;82.66
39949;BME280;29070;48.102;-1.652;2024-01-30T03:28:21;102496.94;;;11.29;82.45
39949;BME280;29070;48.102;-1.652;2024-01-30T03:33:21;102498.38;;;11.23;82.38
39949;BME280;29070;48.102;-1.652;2024-01-30T03:38:22;102512.19;;;11.25;82.49
39949;BME280;29070;48.102;-1.652;2024-01-30T03:43:22;102512.34;;;11.24;82.44
39949;BME280;29070;48.102;-1.652;2024-01-30T03:48:22;102511.38;;;11.25;82.30
39949;BME280;29070;48.102;-1.652;2024-01-30T03:53:23;102519.56;;;11.22;82.13
39949;BME280;29070;48.102;-1.652;2024-01-30T03:58:23;102513.50;;;11.21;82.04
39949;BME280;29070;48.102;-1.652;2024-01-30T04:03:23;102516.28;;;11.20;82.03
39949;BME280;29070;48.102;-1.652;2024-01-30T04:08:24;102522.78;;;11.16;81.98
39949;BME280;29070;48.102;-1.652;2024-01-30T04:13:24;102526.56;;;11.13;81.97
39949;BME280;29070;48.102;-1.652;2024-01-30T04:18:25;102517.19;;;11.11;81.67
39949;BME280;29070;48.102;-1.652;2024-01-30T04:23:25;102519.13;;;11.09;81.68
39949;BME280;29070;48.102;-1.652;2024-01-30T04:28:25;102527.50;;;11.04;81.51
39949;BME280;29070;48.102;-1.652;2024-01-30T04:33:26;102528.94;;;10.98;81.62
39949;BME280;29070;48.102;-1.652;2024-01-30T04:38:26;102534.50;;;10.95;81.37
39949;BME280;29070;48.102;-1.652;2024-01-30T04:43:26;102545.28;;;10.92;81.27
39949;BME280;29070;48.102;-1.652;2024-01-30T04:48:27;102548.59;;;10.94;81.33
39949;BME280;29070;48.102;-1.652;2024-01-30T04:53:30;102550.84;;;10.89;81.24
39949;BME280;29070;48.102;-1.652;2024-01-30T04:58:30;102567.44;;;10.90;80.82
39949;BME280;29070;48.102;-1.652;2024-01-30T05:03:33;102576.97;;;10.91;81.06
39949;BME280;29070;48.102;-1.652;2024-01-30T05:08:34;102578.53;;;10.83;80.95
39949;BME280;29070;48.102;-1.652;2024-01-30T05:13:36;102573.09;;;10.77;80.81
39949;BME280;29070;48.102;-1.652;2024-01-30T05:18:37;102581.13;;;10.75;80.65
39949;BME280;29070;48.102;-1.652;2024-01-30T05:23:37;102595.81;;;10.68;80.45
39949;BME280;29070;48.102;-1.652;2024-01-30T05:28:37;102599.16;;;10.60;80.66
39949;BME280;29070;48.102;-1.652;2024-01-30T05:33:38;102612.75;;;10.56;79.89
39949;BME280;29070;48.102;-1.652;2024-01-30T05:38:38;102613.56;;;10.56;80.28
39949;BME280;29070;48.102;-1.652;2024-01-30T05:43:39;102621.75;;;10.53;80.28
39949;BME280;29070;48.102;-1.652;2024-01-30T05:48:39;102619.44;;;10.50;80.27
39949;BME280;29070;48.102;-1.652;2024-01-30T05:53:39;102628.28;;;10.49;80.07
39949;BME280;29070;48.102;-1.652;2024-01-30T05:58:40;102629.69;;;10.43;79.96
39949;BME280;29070;48.102;-1.652;2024-01-30T06:03:40;102641.59;;;10.38;79.82
39949;BME280;29070;48.102;-1.652;2024-01-30T06:08:40;102648.28;;;10.32;79.87
39949;BME280;29070;48.102;-1.652;2024-01-30T06:13:41;102650.22;;;10.20;79.75
39949;BME280;29070;48.102;-1.652;2024-01-30T06:18:41;102651.34;;;10.18;79.74
39949;BME280;29070;48.102;-1.652;2024-01-30T06:23:41;102645.56;;;10.14;79.59
39949;BME280;29070;48.102;-1.652;2024-01-30T06:28:42;102653.59;;;10.03;79.25
39949;BME280;29070;48.102;-1.652;2024-01-30T06:33:42;102662.31;;;9.93;79.36
39949;BME280;29070;48.102;-1.652;2024-01-30T06:38:42;102661.50;;;9.83;79.16
39949;BME280;29070;48.102;-1.652;2024-01-30T06:43:43;102670.50;;;9.71;78.83
39949;BME280;29070;48.102;-1.652;2024-01-30T06:48:45;102657.56;;;9.60;78.98
39949;BME280;29070;48.102;-1.652;2024-01-30T06:53:45;102661.97;;;9.49;78.83
39949;BME280;29070;48.102;-1.652;2024-01-30T06:58:49;102667.38;;;9.38;78.84
39949;BME280;29070;48.102;-1.652;2024-01-30T07:03:50;102670.00;;;9.28;79.05
39949;BME280;29070;48.102;-1.652;2024-01-30T07:08:50;102672.88;;;9.15;78.89
39949;BME280;29070;48.102;-1.652;2024-01-30T07:13:51;102681.56;;;9.06;78.85
39949;BME280;29070;48.102;-1.652;2024-01-30T07:18:51;102685.13;;;8.95;79.00
39949;BME280;29070;48.102;-1.652;2024-01-30T07:23:52;102697.38;;;8.85;78.91
39949;BME280;29070;48.102;-1.652;2024-01-30T07:28:52;102706.59;;;8.80;79.23
39949;BME280;29070;48.102;-1.652;2024-01-30T07:33:52;102710.59;;;8.74;79.11
39949;BME280;29070;48.102;-1.652;2024-01-30T07:38:53;102713.88;;;8.66;78.95
39949;BME280;29070;48.102;-1.652;2024-01-30T07:43:54;102720.72;;;8.57;79.15
39949;BME280;29070;48.102;-1.652;2024-01-30T07:48:55;102736.69;;;8.54;79.00
39949;BME280;29070;48.102;-1.652;2024-01-30T07:53:57;102742.34;;;8.50;79.28
39949;BME280;29070;48.102;-1.652;2024-01-30T07:58:57;102750.88;;;8.52;79.34
39949;BME280;29070;48.102;-1.652;2024-01-30T08:03:58;102760.25;;;8.54;79.61
39949;BME280;29070;48.102;-1.652;2024-01-30T08:08:58;102759.44;;;8.54;79.42
39949;BME280;29070;48.102;-1.652;2024-01-30T08:13:59;102782.72;;;8.57;79.80
39949;BME280;29070;48.102;-1.652;2024-01-30T08:18:59;102783.44;;;8.59;79.68
39949;BME280;29070;48.102;-1.652;2024-01-30T08:24:02;102794.16;;;8.56;79.84
39949;BME280;29070;48.102;-1.652;2024-01-30T08:29:02;102805.72;;;8.53;79.66
39949;BME280;29070;48.102;-1.652;2024-01-30T08:34:03;102800.75;;;8.50;79.46
39949;BME280;29070;48.102;-1.652;2024-01-30T08:39:03;102803.72;;;8.46;79.60
39949;BME280;29070;48.102;-1.652;2024-01-30T08:44:05;102807.31;;;8.45;79.91
39949;BME280;29070;48.102;-1.652;2024-01-30T08:49:05;102819.72;;;8.43;79.85
39949;BME280;29070;48.102;-1.652;2024-01-30T08:54:06;102826.59;;;8.44;79.58
39949;BME280;29070;48.102;-1.652;2024-01-30T08:59:06;102827.44;;;8.44;79.74
39949;BME280;29070;48.102;-1.652;2024-01-30T09:04:06;102830.47;;;8.49;80.03
39949;BME280;29070;48.102;-1.652;2024-01-30T09:09:07;102835.09;;;8.57;79.82
39949;BME280;29070;48.102;-1.652;2024-01-30T09:14:07;102843.22;;;8.64;79.90
39949;BME280;29070;48.102;-1.652;2024-01-30T09:19:07;102855.84;;;8.80;80.08
39949;BME280;29070;48.102;-1.652;2024-01-30T09:24:08;102871.22;;;8.94;79.90
39949;BME280;29070;48.102;-1.652;2024-01-30T09:29:09;102868.25;;;9.08;79.61
39949;BME280;29070;48.102;-1.652;2024-01-30T09:34:09;102877.84;;;9.29;79.32
39949;BME280;29070;48.102;-1.652;2024-01-30T09:39:09;102877.22;;;9.46;79.44
39949;BME280;29070;48.102;-1.652;2024-01-30T09:44:11;102880.56;;;9.68;78.90
39949;BME280;29070;48.102;-1.652;2024-01-30T09:49:12;102879.50;;;9.80;78.73
39949;BME280;29070;48.102;-1.652;2024-01-30T09:54:14;102886.97;;;9.95;78.55
39949;BME280;29070;48.102;-1.652;2024-01-30T09:59:15;102890.81;;;10.10;78.60
39949;BME280;29070;48.102;-1.652;2024-01-30T10:04:15;102892.88;;;10.26;78.38
39949;BME280;29070;48.102;-1.652;2024-01-30T10:09:16;102897.47;;;10.34;78.16
39949;BME280;29070;48.102;-1.652;2024-01-30T10:14:16;102901.59;;;10.46;78.09
39949;BME280;29070;48.102;-1.652;2024-01-30T10:19:16;102898.53;;;10.60;77.97
39949;BME280;29070;48.102;-1.652;2024-01-30T10:24:17;102907.91;;;10.73;77.41
39949;BME280;29070;48.102;-1.652;2024-01-30T10:29:17;102905.16;;;10.84;77.45
39949;BME280;29070;48.102;-1.652;2024-01-30T10:34:17;102916.41;;;11.04;77.37
39949;BME280;29070;48.102;-1.652;2024-01-30T10:39:19;102917.75;;;11.18;77.11
39949;BME280;29070;48.102;-1.652;2024-01-30T10:44:21;102919.91;;;11.32;76.85
39949;BME280;29070;48.102;-1.652;2024-01-30T10:49:23;102917.91;;;11.44;76.45
39949;BME280;29070;48.102;-1.652;2024-01-30T10:54:24;102923.13;;;11.54;76.22
39949;BME280;29070;48.102;-1.652;2024-01-30T10:59:25;102920.88;;;11.59;76.05
39949;BME280;29070;48.102;-1.652;2024-01-30T11:04:26;102925.25;;;11.68;75.85
39949;BME280;29070;48.102;-1.652;2024-01-30T11:09:29;102927.66;;;11.79;75.27
39949;BME280;29070;48.102;-1.652;2024-01-30T11:14:30;102923.75;;;12.11;75.34
39949;BME280;29070;48.102;-1.652;2024-01-30T11:19:31;102924.25;;;12.15;75.09
39949;BME280;29070;48.102;-1.652;2024-01-30T11:24:39;102928.78;;;12.23;74.61
39949;BME280;29070;48.102;-1.652;2024-01-30T11:29:40;102929.97;;;12.10;74.59
39949;BME280;29070;48.102;-1.652;2024-01-30T11:34:41;102930.59;;;12.04;74.73
39949;BME280;29070;48.102;-1.652;2024-01-30T11:39:42;102930.59;;;12.04;74.62
39949;BME280;29070;48.102;-1.652;2024-01-30T11:44:47;102936.28;;;12.17;74.15
39949;BME280;29070;48.102;-1.652;2024-01-30T11:49:47;102937.66;;;12.22;73.88
39949;BME280;29070;48.102;-1.652;2024-01-30T11:54:48;102939.59;;;12.19;73.47
39949;BME280;29070;48.102;-1.652;2024-01-30T11:59:49;102933.13;;;11.96;73.43
39949;BME280;29070;48.102;-1.652;2024-01-30T12:04:49;102938.34;;;11.78;73.33
39949;BME280;29070;48.102;-1.652;2024-01-30T12:09:53;102920.25;;;11.93;73.19
39949;BME280;29070;48.102;-1.652;2024-01-30T12:14:56;102916.88;;;12.18;73.24
39949;BME280;29070;48.102;-1.652;2024-01-30T12:20:10;102914.34;;;12.53;72.79
39949;BME280;29070;48.102;-1.652;2024-01-30T12:25:15;102917.16;;;12.51;72.93
39949;BME280;29070;48.102;-1.652;2024-01-30T12:30:16;102925.88;;;12.34;72.68
39949;BME280;29070;48.102;-1.652;2024-01-30T12:35:18;102916.63;;;12.48;72.17
39949;BME280;29070;48.102;-1.652;2024-01-30T12:40:19;102931.91;;;12.44;72.14
39949;BME280;29070;48.102;-1.652;2024-01-30T12:45:19;102933.13;;;12.32;71.81
39949;BME280;29070;48.102;-1.652;2024-01-30T12:50:22;102924.25;;;12.33;71.88
39949;BME280;29070;48.102;-1.652;2024-01-30T12:55:23;102921.63;;;12.33;71.56
39949;BME280;29070;48.102;-1.652;2024-01-30T13:00:24;102920.66;;;12.60;71.71
39949;BME280;29070;48.102;-1.652;2024-01-30T13:05:25;102928.19;;;13.07;71.17
39949;BME280;29070;48.102;-1.652;2024-01-30T13:10:25;102926.75;;;13.13;70.76
39949;BME280;29070;48.102;-1.652;2024-01-30T13:15:25;102927.59;;;12.87;70.08
39949;BME280;29070;48.102;-1.652;2024-01-30T13:20:26;102933.19;;;12.84;70.29
39949;BME280;29070;48.102;-1.652;2024-01-30T13:25:26;102919.66;;;12.79;70.06
39949;BME280;29070;48.102;-1.652;2024-01-30T13:30:26;102928.53;;;12.78;69.84
39949;BME280;29070;48.102;-1.652;2024-01-30T13:35:27;102922.94;;;12.81;69.55
39949;BME280;29070;48.102;-1.652;2024-01-30T13:40:27;102927.69;;;13.04;68.96
39949;BME280;29070;48.102;-1.652;2024-01-30T13:45:27;102919.22;;;12.92;68.58
39949;BME280;29070;48.102;-1.652;2024-01-30T13:50:28;102924.88;;;12.97;68.59
39949;BME280;29070;48.102;-1.652;2024-01-30T13:55:29;102925.31;;;12.92;68.27
39949;BME280;29070;48.102;-1.652;2024-01-30T14:00:29;102926.56;;;12.80;67.90
39949;BME280;29070;48.102;-1.652;2024-01-30T14:05:30;102923.25;;;12.78;68.24
39949;BME280;29070;48.102;-1.652;2024-01-30T14:10:30;102922.66;;;12.84;67.77
39949;BME280;29070;48.102;-1.652;2024-01-30T14:15:31;102922.31;;;12.87;67.82
39949;BME280;29070;48.102;-1.652;2024-01-30T14:20:31;102933.28;;;13.01;67.59
39949;BME280;29070;48.102;-1.652;2024-01-30T14:25:31;102923.63;;;13.09;67.08
39949;BME280;29070;48.102;-1.652;2024-01-30T14:30:32;102931.88;;;13.14;66.88
39949;BME280;29070;48.102;-1.652;2024-01-30T14:35:32;102930.06;;;13.15;66.42
39949;BME280;29070;48.102;-1.652;2024-01-30T14:40:33;102926.16;;;13.27;66.21
39949;BME280;29070;48.102;-1.652;2024-01-30T14:45:34;102931.00;;;13.06;66.09
39949;BME280;29070;48.102;-1.652;2024-01-30T14:50:34;102938.34;;;12.94;66.08
39949;BME280;29070;48.102;-1.652;2024-01-30T14:55:34;102935.91;;;12.74;66.00
39949;BME280;29070;48.102;-1.652;2024-01-30T15:00:35;102949.50;;;12.62;66.07
39949;BME280;29070;48.102;-1.652;2024-01-30T15:05:38;102955.06;;;12.58;66.14
39949;BME280;29070;48.102;-1.652;2024-01-30T15:10:38;102954.03;;;12.51;65.84
39949;BME280;29070;48.102;-1.652;2024-01-30T15:15:39;102957.66;;;12.50;65.56
39949;BME280;29070;48.102;-1.652;2024-01-30T15:20:39;102962.69;;;12.44;65.38
39949;BME280;29070;48.102;-1.652;2024-01-30T15:25:39;102964.72;;;12.32;65.09
39949;BME280;29070;48.102;-1.652;2024-01-30T15:30:41;102971.13;;;12.29;65.27
39949;BME280;29070;48.102;-1.652;2024-01-30T15:35:44;102973.47;;;12.14;65.19
39949;BME280;29070;48.102;-1.652;2024-01-30T15:40:44;102975.84;;;12.08;65.13
39949;BME280;29070;48.102;-1.652;2024-01-30T15:45:44;102982.09;;;12.07;65.11
39949;BME280;29070;48.102;-1.652;2024-01-30T15:50:45;102980.34;;;11.97;65.23
39949;BME280;29070;48.102;-1.652;2024-01-30T15:55:46;102978.53;;;11.98;64.95
39949;BME280;29070;48.102;-1.652;2024-01-30T16:00:46;102989.53;;;11.93;65.00
39949;BME280;29070;48.102;-1.652;2024-01-30T16:05:46;102996.84;;;11.90;64.99
39949;BME280;29070;48.102;-1.652;2024-01-30T16:10:47;103002.13;;;11.90;65.03
39949;BME280;29070;48.102;-1.652;2024-01-30T16:15:47;102989.94;;;11.89;64.77
39949;BME280;29070;48.102;-1.652;2024-01-30T16:20:47;102986.16;;;11.73;64.64
39949;BME280;29070;48.102;-1.652;2024-01-30T16:25:48;102992.50;;;11.71;64.63
39949;BME280;29070;48.102;-1.652;2024-01-30T16:30:48;103014.03;;;11.56;64.45
39949;BME280;29070;48.102;-1.652;2024-01-30T16:35:48;103012.28;;;11.47;64.45
39949;BME280;29070;48.102;-1.652;2024-01-30T16:40:49;103014.25;;;11.35;64.32
39949;BME280;29070;48.102;-1.652;2024-01-30T16:45:51;103012.06;;;11.21;64.27
39949;BME280;29070;48.102;-1.652;2024-01-30T16:50:52;103023.19;;;11.15;64.39
39949;BME280;29070;48.102;-1.652;2024-01-30T16:55:52;103024.56;;;11.09;64.46
39949;BME280;29070;48.102;-1.652;2024-01-30T17:00:52;103030.09;;;10.96;64.37
39949;BME280;29070;48.102;-1.652;2024-01-30T17:05:53;103031.63;;;10.89;64.45
39949;BME280;29070;48.102;-1.652;2024-01-30T17:10:55;103032.78;;;10.77;64.29
39949;BME280;29070;48.102;-1.652;2024-01-30T17:15:55;103042.44;;;10.66;64.35
39949;BME280;29070;48.102;-1.652;2024-01-30T17:20:57;103043.13;;;10.59;64.18
39949;BME280;29070;48.102;-1.652;2024-01-30T17:25:57;103036.50;;;10.45;64.16
39949;BME280;29070;48.102;-1.652;2024-01-30T17:30:59;103039.63;;;10.39;64.00
39949;BME280;29070;48.102;-1.652;2024-01-30T17:36:00;103046.94;;;10.25;64.05
39949;BME280;29070;48.102;-1.652;2024-01-30T17:41:00;103053.94;;;10.15;64.23
39949;BME280;29070;48.102;-1.652;2024-01-30T17:46:00;103064.00;;;10.00;64.13
39949;BME280;29070;48.102;-1.652;2024-01-30T17:51:02;103067.25;;;9.92;64.16
39949;BME280;29070;48.102;-1.652;2024-01-30T17:56:03;103072.59;;;9.81;64.16
39949;BME280;29070;48.102;-1.652;2024-01-30T18:01:06;103072.00;;;9.68;64.04
39949;BME280;29070;48.102;-1.652;2024-01-30T18:06:07;103091.41;;;9.56;64.25
39949;BME280;29070;48.102;-1.652;2024-01-30T18:11:07;103099.31;;;9.44;64.47
39949;BME280;29070;48.102;-1.652;2024-01-30T18:16:07;103091.94;;;9.28;64.29
39949;BME280;29070;48.102;-1.652;2024-01-30T18:21:08;103091.91;;;9.07;64.40
39949;BME280;29070;48.102;-1.652;2024-01-30T18:26:08;103096.81;;;9.01;64.37
39949;BME280;29070;48.102;-1.652;2024-01-30T18:31:09;103097.69;;;8.90;64.72
39949;BME280;29070;48.102;-1.652;2024-01-30T18:36:09;103110.59;;;8.70;64.84
39949;BME280;29070;48.102;-1.652;2024-01-30T18:41:10;103101.09;;;8.58;64.51
39949;BME280;29070;48.102;-1.652;2024-01-30T18:46:10;103096.03;;;8.45;65.01
39949;BME280;29070;48.102;-1.652;2024-01-30T18:51:14;103097.56;;;8.36;65.32
39949;BME280;29070;48.102;-1.652;2024-01-30T18:56:16;103101.97;;;8.36;64.90
39949;BME280;29070;48.102;-1.652;2024-01-30T19:01:17;103101.38;;;8.21;65.18
39949;BME280;29070;48.102;-1.652;2024-01-30T19:06:19;103102.56;;;8.17;65.48
39949;BME280;29070;48.102;-1.652;2024-01-30T19:11:20;103100.22;;;8.14;65.28
39949;BME280;29070;48.102;-1.652;2024-01-30T19:16:20;103114.94;;;8.04;65.14
39949;BME280;29070;48.102;-1.652;2024-01-30T19:21:20;103117.31;;;7.95;65.87
39949;BME280;29070;48.102;-1.652;2024-01-30T19:26:21;103115.88;;;7.91;65.67
39949;BME280;29070;48.102;-1.652;2024-01-30T19:31:22;103113.72;;;7.74;65.90
39949;BME280;29070;48.102;-1.652;2024-01-30T19:36:23;103113.00;;;7.72;66.03
39949;BME280;29070;48.102;-1.652;2024-01-30T19:41:23;103114.31;;;7.66;65.89
39949;BME280;29070;48.102;-1.652;2024-01-30T19:46:23;103113.13;;;7.59;66.20
39949;BME280;29070;48.102;-1.652;2024-01-30T19:51:23;103104.44;;;7.58;66.54
39949;BME280;29070;48.102;-1.652;2024-01-30T19:56:24;103102.50;;;7.49;66.56
39949;BME280;29070;48.102;-1.652;2024-01-30T20:01:24;103107.28;;;7.44;66.69
39949;BME280;29070;48.102;-1.652;2024-01-30T20:06:25;103097.00;;;7.30;66.91
39949;BME280;29070;48.102;-1.652;2024-01-30T20:11:25;103098.66;;;7.31;67.00
39949;BME280;29070;48.102;-1.652;2024-01-30T20:16:43;103103.91;;;7.31;67.25
39949;BME280;29070;48.102;-1.652;2024-01-30T20:21:44;103105.78;;;7.29;67.30
39949;BME280;29070;48.102;-1.652;2024-01-30T20:26:47;103114.75;;;7.13;67.41
39949;BME280;29070;48.102;-1.652;2024-01-30T20:31:47;103119.47;;;7.08;67.21
39949;BME280;29070;48.102;-1.652;2024-01-30T20:36:47;103116.38;;;7.03;67.40
39949;BME280;29070;48.102;-1.652;2024-01-30T20:41:48;103132.50;;;6.97;67.49
39949;BME280;29070;48.102;-1.652;2024-01-30T20:46:48;103131.25;;;6.90;67.86
39949;BME280;29070;48.102;-1.652;2024-01-30T20:51:49;103142.38;;;6.80;68.00
39949;BME280;29070;48.102;-1.652;2024-01-30T20:56:50;103148.31;;;6.82;67.77
39949;BME280;29070;48.102;-1.652;2024-01-30T21:01:50;103152.41;;;6.74;68.36
39949;BME280;29070;48.102;-1.652;2024-01-30T21:06:51;103156.81;;;6.73;68.13
39949;BME280;29070;48.102;-1.652;2024-01-30T21:11:51;103162.03;;;6.73;68.24
39949;BME280;29070;48.102;-1.652;2024-01-30T21:16:52;103170.56;;;6.75;68.28
39949;BME280;29070;48.102;-1.652;2024-01-30T21:21:52;103179.88;;;6.66;68.75
39949;BME280;29070;48.102;-1.652;2024-01-30T21:26:52;103189.41;;;6.67;68.99
39949;BME280;29070;48.102;-1.652;2024-01-30T21:31:53;103192.94;;;6.66;68.70
39949;BME280;29070;48.102;-1.652;2024-01-30T21:36:53;103190.22;;;6.68;68.85
39949;BME280;29070;48.102;-1.652;2024-01-30T21:41:53;103178.84;;;6.69;68.94
39949;BME280;29070;48.102;-1.652;2024-01-30T21:46:54;103185.22;;;6.65;69.16
39949;BME280;29070;48.102;-1.652;2024-01-30T21:51:55;103190.22;;;6.68;69.17
39949;BME280;29070;48.102;-1.652;2024-01-30T21:56:55;103197.22;;;6.67;69.62
39949;BME280;29070;48.102;-1.652;2024-01-30T22:01:55;103203.16;;;6.70;69.46
39949;BME280;29070;48.102;-1.652;2024-01-30T22:06:56;103206.81;;;6.67;69.45
39949;BME280;29070;48.102;-1.652;2024-01-30T22:11:56;103208.41;;;6.57;69.63
39949;BME280;29070;48.102;-1.652;2024-01-30T22:16:56;103207.56;;;6.56;69.99
39949;BME280;29070;48.102;-1.652;2024-01-30T22:21:57;103213.63;;;6.57;69.72
39949;BME280;29070;48.102;-1.652;2024-01-30T22:26:57;103206.94;;;6.53;69.88
39949;BME280;29070;48.102;-1.652;2024-01-30T22:31:57;103207.78;;;6.53;69.90
39949;BME280;29070;48.102;-1.652;2024-01-30T22:36:59;103212.50;;;6.48;69.85
39949;BME280;29070;48.102;-1.652;2024-01-30T22:41:59;103213.66;;;6.44;70.06
39949;BME280;29070;48.102;-1.652;2024-01-30T22:46:59;103209.47;;;6.41;70.02
39949;BME280;29070;48.102;-1.652;2024-01-30T22:52:00;103211.25;;;6.28;70.26
39949;BME280;29070;48.102;-1.652;2024-01-30T22:57:00;103216.97;;;6.20;70.33
39949;BME280;29070;48.102;-1.652;2024-01-30T23:02:00;103223.25;;;6.18;70.49
39949;BME280;29070;48.102;-1.652;2024-01-30T23:07:01;103232.09;;;6.02;70.08
39949;BME280;29070;48.102;-1.652;2024-01-30T23:12:02;103223.41;;;5.89;70.61
39949;BME280;29070;48.102;-1.652;2024-01-30T23:17:02;103225.38;;;5.85;70.75
39949;BME280;29070;48.102;-1.652;2024-01-30T23:22:03;103218.72;;;5.81;70.53
39949;BME280;29070;48.102;-1.652;2024-01-30T23:27:03;103224.59;;;5.70;70.51
39949;BME280;29070;48.102;-1.652;2024-01-30T23:32:05;103215.31;;;5.66;70.58
39949;BME280;29070;48.102;-1.652;2024-01-30T23:37:05;103231.78;;;5.67;70.89
39949;BME280;29070;48.102;-1.652;2024-01-30T23:42:05;103224.47;;;5.59;70.77
39949;BME280;29070;48.102;-1.652;2024-01-30T23:47:06;103227.28;;;5.56;70.79
39949;BME280;29070;48.102;-1.652;2024-01-30T23:52:07;103223.72;;;5.44;71.04
39949;BME280;29070;48.102;-1.652;2024-01-30T23:57:08;103219.97;;;5.48;71.04
